Crystal Mt.
Crystal Mt. Ski Area
Latest observation 09/01 16:00 PDT
| Time (PDT) | Temp °F 6830' | Temp °F 4540' | RH % 6830' | RH % 4540' | Min 6830' | Spd 6830' | Gust 6830' | Dir 6830' | Pcp1 in 4540' | PcpSum in 4540' | 24Sno in 4540' | SnoHt in 4540' |
|---|---|---|---|---|---|---|---|---|---|---|---|---|
| 09/01 16:00 | – | 49 | – | 98 | – | – | – | – | 0.00 | 0.00 | 0.1 | 0.3 |
| 09/01 15:00 | – | 53 | – | 90 | – | – | – | – | 0.00 | 0.00 | 0.2 | 0.3 |
| 09/01 14:00 | – | 61 | – | 71 | – | – | – | – | 0.00 | 0.00 | 0.1 | 0.3 |
| 09/01 13:00 | – | 60 | – | 67 | – | – | – | – | 0.00 | 0.00 | 0.1 | 0.1 |
| 09/01 12:00 | – | 62 | – | 64 | – | – | – | – | 0.00 | 0.00 | 0.1 | 0.2 |
| 09/01 11:00 | – | 61 | – | 65 | – | – | – | – | 0.00 | 0.00 | 0.1 | -0.2 |
| 09/01 10:00 | – | 58 | – | 71 | – | – | – | – | 0.00 | 0.00 | -0.1 | -0.5 |
| 09/01 09:00 | – | 53 | – | 80 | – | – | – | – | 0.00 | 0.00 | -0.0 | -0.2 |
| 09/01 08:00 | – | 49 | – | 84 | – | – | – | – | 0.00 | 0.00 | 0.0 | -0.1 |
| 09/01 07:00 | – | 46 | – | 85 | – | – | – | – | 0.00 | 0.00 | 0.1 | 0.0 |
| 09/01 06:00 | – | 47 | – | 83 | – | – | – | – | 0.00 | 0.00 | 0.1 | 0.0 |
| 09/01 05:00 | – | 48 | – | 82 | – | – | – | – | 0.00 | 0.00 | 0.1 | 0.0 |
| 09/01 04:00 | – | 48 | – | 80 | – | – | – | – | 0.00 | 0.00 | 0.1 | 0.0 |
| 09/01 03:00 | – | 49 | – | 80 | – | – | – | – | 0.00 | 0.00 | 0.1 | -0.0 |
| 09/01 02:00 | – | 50 | – | 78 | – | – | – | – | 0.00 | 0.00 | 0.1 | 0.1 |
| 09/01 01:00 | – | 50 | – | 79 | – | – | – | – | 0.00 | 0.00 | 0.1 | -0.0 |
| 09/01 00:00 | – | 50 | – | 76 | – | – | – | – | 0.00 | 0.00 | 0.1 | 0.1 |
| 08/31 23:00 | – | 51 | – | 76 | – | – | – | – | 0.00 | 0.00 | 0.1 | -0.0 |
| 08/31 22:00 | – | 52 | – | 73 | – | – | – | – | 0.00 | 0.00 | 0.1 | -0.0 |
| 08/31 21:00 | – | 52 | – | 73 | – | – | – | – | 0.00 | 0.00 | 0.1 | 0.0 |
| 08/31 20:00 | – | 54 | – | 79 | – | – | – | – | 0.00 | 0.00 | 0.1 | 0.1 |
| 08/31 19:00 | – | 58 | – | 76 | – | – | – | – | 0.00 | 0.00 | 0.0 | -0.3 |
| 08/31 18:00 | – | 70 | – | 51 | – | – | – | – | 0.00 | 0.00 | -0.2 | -1.4 |
| 08/31 17:00 | – | 73 | – | 33 | – | – | – | – | 0.00 | 0.00 | 0.0 | -0.5 |

